Time,TemperatureF,DewpointF,PressureIn,WindDirection,WindDirectionDegrees,WindSpeedMPH,WindSpeedGustMPH,Humidity,HourlyPrecipIn,Conditions,Clouds,dailyrainin,SoftwareType,DateUTC
2013-01-19 00:01:00,34.0,21.2,30.16,SW,217,9.4,15.0,59,0.00,OVC,,0.00,WeatherDisplay:10.37,2013-01-19 05:01:00,
2013-01-19 00:03:00,34.1,21.3,30.16,SSW,209,9.3,9.3,59,0.00,OVC,,0.00,WeatherDisplay:10.37,2013-01-19 05:03:00,
2013-01-19 00:08:00,34.2,21.4,30.16,South,180,6.2,11.5,59,0.00,OVC,,0.00,WeatherDisplay:10.37,2013-01-19 05:08:00,
2013-01-19 00:13:00,34.3,21.4,30.16,South,178,4.2,5.8,59,0.00,OVC,,0.00,WeatherDisplay:10.37,2013-01-19 05:13:00,
2013-01-19 00:18:00,34.3,21.4,30.16,SW,231,10.4,15.0,59,0.00,OVC,,0.00,WeatherDisplay:10.37,2013-01-19 05:18:00,
2013-01-19 00:23:00,34.4,21.5,30.16,South,190,8.5,11.5,59,0.00,OVC,,0.00,WeatherDisplay:10.37,2013-01-19 05:23:00,
2013-01-19 00:28:00,34.4,21.5,30.16,South,182,6.9,11.5,59,0.00,OVC,,0.00,WeatherDisplay:10.37,2013-01-19 05:28:00,
2013-01-19 00:33:00,34.5,21.6,30.15,WSW,238,10.4,16.1,59,0.00,OVC,,0.00,WeatherDisplay:10.37,2013-01-19 05:33:00,
2013-01-19 00:38:00,34.5,21.6,30.15,SW,231,7.1,11.5,59,0.00,OVC,,0.00,WeatherDisplay:10.37,2013-01-19 05:38:00,
2013-01-19 00:43:00,34.6,22.1,30.15,SW,219,6.4,11.5,60,0.00,OVC,,0.00,WeatherDisplay:10.37,2013-01-19 05:43:00,
2013-01-19 00:48:00,34.6,21.7,30.15,SW,232,7.2,11.5,59,0.00,OVC,,0.00,WeatherDisplay:10.37,2013-01-19 05:48:00,
2013-01-19 00:53:00,34.7,21.8,30.15,SSW,213,4.8,8.1,59,0.00,OVC,,0.00,WeatherDisplay:10.37,2013-01-19 05:53:00,
2013-01-19 00:58:00,34.8,21.9,30.15,SSW,210,10.2,12.7,59,0.00,OVC,,0.00,WeatherDisplay:10.37,2013-01-19 05:58:00,
2013-01-19 01:03:00,34.8,21.9,30.14,SW,217,6.3,11.5,59,0.00,OVC,,0.00,WeatherDisplay:10.37,2013-01-19 06:03:00,
2013-01-19 01:08:00,34.8,21.9,30.14,SW,229,6.7,9.2,59,0.00,OVC,,0.00,WeatherDisplay:10.37,2013-01-19 06:08:00,
2013-01-19 01:13:00,34.8,21.9,30.14,SW,224,7.9,11.5,59,0.00,OVC,,0.00,WeatherDisplay:10.37,2013-01-19 06:13:00,
2013-01-19 01:18:00,34.8,21.9,30.14,South,190,8.2,11.5,59,0.00,OVC,,0.00,WeatherDisplay:10.37,2013-01-19 06:18:00,
2013-01-19 01:23:00,34.8,21.9,30.14,SSW,209,8.2,17.3,59,0.00,OVC,,0.00,WeatherDisplay:10.37,2013-01-19 06:23:00,
2013-01-19 01:28:00,34.8,21.9,30.14,SW,219,6.6,12.7,59,0.00,OVC,,0.00,WeatherDisplay:10.37,2013-01-19 06:28:00,
2013-01-19 01:33:00,34.7,21.8,30.14,SW,217,6.2,9.2,59,0.00,OVC,,0.00,WeatherDisplay:10.37,2013-01-19 06:33:00,
2013-01-19 01:38:00,34.7,22.2,30.14,SSW,213,7.5,11.0,60,0.00,OVC,,0.00,WeatherDisplay:10.37,2013-01-19 06:38:00,
2013-01-19 01:43:00,34.7,22.2,30.14,SSW,200,5.0,5.8,60,0.00,OVC,,0.00,WeatherDisplay:10.37,2013-01-19 06:43:00,
2013-01-19 01:48:00,34.6,22.1,30.14,SW,217,5.3,8.1,60,0.00,OVC,,0.00,WeatherDisplay:10.37,2013-01-19 06:48:00,
2013-01-19 01:53:00,34.7,21.8,30.15,SSW,209,6.8,16.1,59,0.00,OVC,,0.00,WeatherDisplay:10.37,2013-01-19 06:53:00,
2013-01-19 01:58:00,34.8,21.9,30.16,WSW,257,7.2,11.5,59,0.00,OVC,,0.00,WeatherDisplay:10.37,2013-01-19 06:58:00,
2013-01-19 02:03:00,34.8,22.3,30.15,SSW,205,4.8,8.1,60,0.00,SCT,,0.00,WeatherDisplay:10.37,2013-01-19 07:03:00,
2013-01-19 02:08:00,34.7,22.2,30.16,SSW,196,5.1,10.0,60,0.00,SCT,,0.00,WeatherDisplay:10.37,2013-01-19 07:08:00,
2013-01-19 02:13:00,34.8,22.3,30.15,SW,233,7.2,10.4,60,0.00,SCT,,0.00,WeatherDisplay:10.37,2013-01-19 07:13:00,
2013-01-19 02:18:00,34.8,22.3,30.15,SW,214,4.9,9.2,60,0.00,SCT,,0.00,WeatherDisplay:10.37,2013-01-19 07:18:00,
2013-01-19 02:23:00,34.8,22.3,30.16,SSW,209,6.7,10.4,60,0.00,SCT,,0.00,WeatherDisplay:10.37,2013-01-19 07:23:00,
2013-01-19 02:28:00,34.7,22.6,30.16,SW,218,3.8,6.0,61,0.00,SCT,,0.00,WeatherDisplay:10.37,2013-01-19 07:28:00,
2013-01-19 02:33:00,34.6,22.1,30.16,SW,222,2.6,4.6,60,0.00,SCT,,0.00,WeatherDisplay:10.37,2013-01-19 07:33:00,
2013-01-19 02:38:00,34.6,22.5,30.16,SW,234,5.8,10.4,61,0.00,SCT,,0.00,WeatherDisplay:10.37,2013-01-19 07:38:00,
2013-01-19 02:43:00,34.5,22.4,30.16,SSW,202,4.3,5.8,61,0.00,SCT,,0.00,WeatherDisplay:10.37,2013-01-19 07:43:00,
2013-01-19 02:48:00,34.5,22.0,30.16,SSW,204,5.3,8.1,60,0.00,SCT,,0.00,WeatherDisplay:10.37,2013-01-19 07:48:00,
2013-01-19 02:53:00,34.6,22.5,30.15,SSW,208,4.9,9.2,61,0.00,SCT,,0.00,WeatherDisplay:10.37,2013-01-19 07:53:00,
2013-01-19 02:58:00,34.6,22.1,30.15,SSE,163,7.0,9.2,60,0.00,SCT,,0.00,WeatherDisplay:10.37,2013-01-19 07:58:00,
2013-01-19 03:03:00,34.6,22.5,30.15,SSW,202,5.0,6.9,61,0.00,SCT,,0.00,WeatherDisplay:10.37,2013-01-19 08:03:00,
2013-01-19 03:08:00,34.7,22.2,30.15,SW,214,8.8,12.7,60,0.00,SCT,,0.00,WeatherDisplay:10.37,2013-01-19 08:08:00,
2013-01-19 03:13:00,34.9,22.4,30.15,SSW,202,7.2,11.5,60,0.00,SCT,,0.00,WeatherDisplay:10.37,2013-01-19 08:13:00,
2013-01-19 03:18:00,35.0,22.5,30.15,SSW,196,7.0,9.2,60,0.00,SCT,,0.00,WeatherDisplay:10.37,2013-01-19 08:18:00,
2013-01-19 03:23:00,35.3,22.4,30.14,SW,226,5.5,8.1,59,0.00,SCT,,0.00,WeatherDisplay:10.37,2013-01-19 08:23:00,
2013-01-19 03:28:00,35.9,23.0,30.14,SW,233,3.8,5.8,59,0.00,SCT,,0.00,WeatherDisplay:10.37,2013-01-19 08:28:00,
2013-01-19 03:33:00,36.1,22.3,30.14,WSW,238,4.9,8.1,57,0.00,SCT,,0.00,WeatherDisplay:10.37,2013-01-19 08:33:00,
2013-01-19 03:38:00,36.3,22.9,30.14,SW,235,4.8,5.8,58,0.00,SCT,,0.00,WeatherDisplay:10.37,2013-01-19 08:38:00,
2013-01-19 03:43:00,36.5,22.7,30.14,SW,232,7.3,15.0,57,0.00,SCT,,0.00,WeatherDisplay:10.37,2013-01-19 08:43:00,
2013-01-19 03:48:00,36.9,22.7,30.13,SW,217,8.7,15.0,56,0.00,SCT,,0.00,WeatherDisplay:10.37,2013-01-19 08:48:00,
2013-01-19 03:53:00,37.1,22.4,30.13,WNW,298,13.1,29.9,55,0.00,SCT,,0.00,WeatherDisplay:10.37,2013-01-19 08:53:00,
2013-01-19 03:58:00,37.3,22.6,30.14,SW,227,7.5,10.4,55,0.00,SCT,,0.00,WeatherDisplay:10.37,2013-01-19 08:58:00,
2013-01-19 04:03:00,37.3,22.6,30.13,SW,217,6.1,10.4,55,0.00,FEW,,0.00,WeatherDisplay:10.37,2013-01-19 09:03:00,
2013-01-19 04:08:00,37.3,22.6,30.12,SW,233,7.8,12.7,55,0.00,FEW,,0.00,WeatherDisplay:10.37,2013-01-19 09:08:00,
2013-01-19 04:13:00,37.1,22.8,30.13,SW,227,5.5,12.0,56,0.00,FEW,,0.00,WeatherDisplay:10.37,2013-01-19 09:13:00,
2013-01-19 04:18:00,37.1,22.8,30.13,SSW,206,9.3,12.7,56,0.00,FEW,,0.00,WeatherDisplay:10.37,2013-01-19 09:18:00,
2013-01-19 04:23:00,37.2,22.9,30.12,WSW,252,8.1,13.0,56,0.00,FEW,,0.00,WeatherDisplay:10.37,2013-01-19 09:23:00,
2013-01-19 04:28:00,37.3,23.0,30.12,SW,217,6.2,6.9,56,0.00,FEW,,0.00,WeatherDisplay:10.37,2013-01-19 09:28:00,
2013-01-19 04:33:00,37.3,23.0,30.12,SSW,213,8.7,12.7,56,0.00,FEW,,0.00,WeatherDisplay:10.37,2013-01-19 09:33:00,
2013-01-19 04:38:00,37.2,22.9,30.12,SSW,198,8.1,13.8,56,0.00,FEW,,0.00,WeatherDisplay:10.37,2013-01-19 09:38:00,
2013-01-19 04:43:00,37.1,23.3,30.12,SW,225,6.7,12.7,57,0.00,FEW,,0.00,WeatherDisplay:10.37,2013-01-19 09:43:00,
2013-01-19 04:48:00,37.0,23.2,30.11,SW,234,6.4,11.5,57,0.00,FEW,,0.00,WeatherDisplay:10.37,2013-01-19 09:48:00,
2013-01-19 04:53:00,37.0,23.2,30.11,NW,308,9.2,12.7,57,0.00,FEW,,0.00,WeatherDisplay:10.37,2013-01-19 09:53:00,
2013-01-19 04:58:00,36.9,23.1,30.11,WSW,250,11.2,16.1,57,0.00,FEW,,0.00,WeatherDisplay:10.37,2013-01-19 09:58:00,
2013-01-19 05:03:00,36.8,23.4,30.11,SW,225,7.7,19.6,58,0.00,FEW,,0.00,WeatherDisplay:10.37,2013-01-19 10:03:00,
2013-01-19 05:08:00,36.8,23.4,30.10,SSW,210,5.9,11.5,58,0.00,FEW,,0.00,WeatherDisplay:10.37,2013-01-19 10:08:00,
2013-01-19 05:13:00,36.8,23.4,30.10,SW,226,12.5,18.4,58,0.00,FEW,,0.00,WeatherDisplay:10.37,2013-01-19 10:13:00,
2013-01-19 05:18:00,36.8,23.4,30.11,SW,215,9.2,11.5,58,0.00,FEW,,0.00,WeatherDisplay:10.37,2013-01-19 10:18:00,
2013-01-19 05:23:00,36.6,23.2,30.11,WSW,248,5.2,7.0,58,0.00,FEW,,0.00,WeatherDisplay:10.37,2013-01-19 10:23:00,
2013-01-19 05:28:00,36.5,23.5,30.11,SW,219,6.9,16.1,59,0.00,FEW,,0.00,WeatherDisplay:10.37,2013-01-19 10:28:00,
2013-01-19 05:33:00,36.5,23.5,30.10,SW,223,7.7,16.1,59,0.00,FEW,,0.00,WeatherDisplay:10.37,2013-01-19 10:33:00,
2013-01-19 05:38:00,36.5,23.5,30.11,SSW,212,7.3,11.0,59,0.00,FEW,,0.00,WeatherDisplay:10.37,2013-01-19 10:38:00,
2013-01-19 05:43:00,36.5,23.5,30.11,SW,220,5.3,8.1,59,0.00,FEW,,0.00,WeatherDisplay:10.37,2013-01-19 10:43:00,
2013-01-19 05:48:00,36.4,23.4,30.11,SW,228,7.9,12.7,59,0.00,FEW,,0.00,WeatherDisplay:10.37,2013-01-19 10:48:00,
2013-01-19 05:53:00,36.4,23.4,30.11,West,272,8.9,19.6,59,0.00,FEW,,0.00,WeatherDisplay:10.37,2013-01-19 10:53:00,
2013-01-19 05:58:00,36.4,23.8,30.10,West,280,5.4,8.1,60,0.00,FEW,,0.00,WeatherDisplay:10.37,2013-01-19 10:58:00,
2013-01-19 06:03:00,36.4,23.8,30.10,SW,215,4.4,8.0,60,0.00,CLR,,0.00,WeatherDisplay:10.37,2013-01-19 11:03:00,
2013-01-19 06:08:00,36.3,23.7,30.10,SW,232,7.4,11.5,60,0.00,CLR,,0.00,WeatherDisplay:10.37,2013-01-19 11:08:00,
2013-01-19 06:13:00,36.4,23.8,30.10,SSW,205,5.2,12.7,60,0.00,CLR,,0.00,WeatherDisplay:10.37,2013-01-19 11:13:00,
2013-01-19 07:48:00,37.1,24.5,30.09,SSW,209,6.3,17.3,60,0.00,SCT,,0.00,WeatherDisplay:10.37,2013-01-19 12:48:00,
2013-01-19 07:53:00,37.1,24.5,30.09,SW,229,6.5,13.0,60,0.00,SCT,,0.00,WeatherDisplay:10.37,2013-01-19 12:53:00,
2013-01-19 07:58:00,37.3,24.7,30.09,WSW,253,6.1,13.8,60,0.00,SCT,,0.00,WeatherDisplay:10.37,2013-01-19 12:58:00,
2013-01-19 08:03:00,37.4,24.8,30.09,WSW,242,9.7,13.8,60,0.00,SCT,,0.00,WeatherDisplay:10.37,2013-01-19 13:03:00,
2013-01-19 08:08:00,37.5,24.9,30.09,WSW,244,7.9,10.4,60,0.00,SCT,,0.00,WeatherDisplay:10.37,2013-01-19 13:08:00,
2013-01-19 08:13:00,37.4,24.8,30.10,SW,231,5.4,8.1,60,0.00,SCT,,0.00,WeatherDisplay:10.37,2013-01-19 13:13:00,
2013-01-19 08:18:00,37.5,24.9,30.10,SW,229,9.8,19.6,60,0.00,SCT,,0.00,WeatherDisplay:10.37,2013-01-19 13:18:00,
2013-01-19 08:23:00,37.7,24.6,30.10,SSW,202,7.7,17.3,59,0.00,SCT,,0.00,WeatherDisplay:10.37,2013-01-19 13:23:00,
2013-01-19 08:28:00,37.6,25.0,30.10,WSW,248,6.3,11.5,60,0.00,SCT,,0.00,WeatherDisplay:10.37,2013-01-19 13:28:00,
2013-01-19 08:33:00,37.6,25.0,30.10,WSW,244,6.0,10.0,60,0.00,SCT,,0.00,WeatherDisplay:10.37,2013-01-19 13:33:00,
2013-01-19 08:38:00,37.6,25.0,30.10,SW,235,10.4,20.7,60,0.00,SCT,,0.00,WeatherDisplay:10.37,2013-01-19 13:38:00,
2013-01-19 08:43:00,37.7,25.1,30.10,SW,227,8.6,18.0,60,0.00,SCT,,0.00,WeatherDisplay:10.37,2013-01-19 13:43:00,
2013-01-19 08:48:00,37.9,25.2,30.10,SSW,211,5.7,15.0,60,0.00,SCT,,0.00,WeatherDisplay:10.37,2013-01-19 13:48:00,
2013-01-19 08:54:00,38.1,25.0,30.10,SW,225,10.4,19.6,59,0.00,SCT,,0.00,WeatherDisplay:10.37,2013-01-19 13:54:00,
2013-01-19 08:59:00,38.3,25.2,30.10,SW,232,11.2,18.0,59,0.00,SCT,,0.00,WeatherDisplay:10.37,2013-01-19 13:59:00,
2013-01-19 09:04:00,38.4,25.3,30.10,WSW,246,8.0,18.0,59,0.00,SCT,,0.00,WeatherDisplay:10.37,2013-01-19 14:04:00,
2013-01-19 09:09:00,38.5,25.4,30.10,SW,228,11.7,17.3,59,0.00,SCT,,0.00,WeatherDisplay:10.37,2013-01-19 14:09:00,
2013-01-19 09:14:00,38.8,25.7,30.09,SW,231,7.8,13.8,59,0.00,SCT,,0.00,WeatherDisplay:10.37,2013-01-19 14:14:00,
2013-01-19 09:19:00,39.1,25.6,30.10,SW,221,7.5,11.5,58,0.00,SCT,,0.00,WeatherDisplay:10.37,2013-01-19 14:19:00,
2013-01-19 09:24:00,39.2,25.6,30.09,SW,230,9.9,15.0,58,0.00,SCT,,0.00,WeatherDisplay:10.37,2013-01-19 14:24:00,
2013-01-19 09:29:00,39.4,25.4,30.10,WSW,241,9.2,12.7,57,0.00,SCT,,0.00,WeatherDisplay:10.37,2013-01-19 14:29:00,
2013-01-19 09:34:00,39.7,25.3,30.09,WSW,258,9.1,19.6,56,0.00,SCT,,0.00,WeatherDisplay:10.37,2013-01-19 14:34:00,
2013-01-19 09:39:00,40.0,25.6,30.09,SW,235,11.5,20.7,56,0.00,SCT,,0.00,WeatherDisplay:10.37,2013-01-19 14:39:00,
2013-01-19 09:44:00,40.1,25.6,30.10,WSW,240,12.3,17.3,56,0.00,SCT,,0.00,WeatherDisplay:10.37,2013-01-19 14:44:00,
2013-01-19 09:49:00,40.3,25.8,30.09,SSW,198,10.9,15.0,56,0.00,SCT,,0.00,WeatherDisplay:10.37,2013-01-19 14:49:00,
2013-01-19 09:54:00,40.6,25.7,30.09,SW,214,8.0,12.7,55,0.00,SCT,,0.00,WeatherDisplay:10.37,2013-01-19 14:54:00,
2013-01-19 09:59:00,40.8,25.9,30.09,West,267,9.4,19.6,55,0.00,SCT,,0.00,WeatherDisplay:10.37,2013-01-19 14:59:00,
2013-01-19 10:04:00,41.0,26.1,30.09,WSW,244,8.1,18.4,55,0.00,SCT,,0.00,WeatherDisplay:10.37,2013-01-19 15:04:00,
2013-01-19 10:09:00,41.3,26.3,30.09,SW,219,11.7,18.4,55,0.00,SCT,,0.00,WeatherDisplay:10.37,2013-01-19 15:09:00,
2013-01-19 10:14:00,41.6,26.2,30.09,SW,229,12.3,19.6,54,0.00,SCT,,0.00,WeatherDisplay:10.37,2013-01-19 15:14:00,
2013-01-19 10:19:00,41.9,26.4,30.09,SSW,211,10.6,14.0,54,0.00,SCT,,0.00,WeatherDisplay:10.37,2013-01-19 15:19:00,
2013-01-19 10:24:00,42.3,26.8,30.09,West,261,9.9,17.3,54,0.00,SCT,,0.00,WeatherDisplay:10.37,2013-01-19 15:24:00,
2013-01-19 10:29:00,42.6,26.6,30.08,SW,215,12.2,17.3,53,0.00,SCT,,0.00,WeatherDisplay:10.37,2013-01-19 15:29:00,
2013-01-19 10:34:00,42.9,26.9,30.08,SW,232,10.7,19.6,53,0.00,SCT,,0.00,WeatherDisplay:10.37,2013-01-19 15:34:00,
2013-01-19 10:39:00,43.1,27.1,30.08,SSW,213,8.3,14.0,53,0.00,SCT,,0.00,WeatherDisplay:10.37,2013-01-19 15:39:00,
2013-01-19 10:44:00,43.3,26.8,30.08,SSW,209,8.0,19.6,52,0.00,SCT,,0.00,WeatherDisplay:10.37,2013-01-19 15:44:00,
2013-01-19 10:49:00,43.6,28.0,30.08,WSW,255,7.8,13.8,54,0.00,SCT,,0.00,WeatherDisplay:10.37,2013-01-19 15:49:00,
2013-01-19 10:54:00,44.0,27.5,30.08,WSW,248,11.0,23.0,52,0.00,SCT,,0.00,WeatherDisplay:10.37,2013-01-19 15:54:00,
2013-01-19 10:59:00,44.5,28.0,30.08,WSW,255,7.5,15.0,52,0.00,SCT,,0.00,WeatherDisplay:10.37,2013-01-19 15:59:00,
2013-01-19 11:04:00,45.0,28.4,30.08,WSW,237,10.1,15.0,52,0.00,SCT,,0.00,WeatherDisplay:10.37,2013-01-19 16:04:00,
2013-01-19 11:09:00,45.0,27.5,30.08,WNW,285,13.2,18.4,50,0.00,SCT,,0.00,WeatherDisplay:10.37,2013-01-19 16:09:00,
2013-01-19 11:14:00,44.9,27.8,30.07,West,281,7.7,11.5,51,0.00,SCT,,0.00,WeatherDisplay:10.37,2013-01-19 16:14:00,
2013-01-19 11:19:00,45.0,27.9,30.06,WSW,240,11.9,17.3,51,0.00,SCT,,0.00,WeatherDisplay:10.37,2013-01-19 16:19:00,
2013-01-19 11:24:00,44.8,27.8,30.06,SSW,198,8.7,18.4,51,0.00,SCT,,0.00,WeatherDisplay:10.37,2013-01-19 16:24:00,
2013-01-19 11:29:00,45.0,28.4,30.06,WSW,252,9.7,25.3,52,0.00,SCT,,0.00,WeatherDisplay:10.37,2013-01-19 16:29:00,
2013-01-19 11:34:00,45.2,28.6,30.06,SW,223,10.3,13.8,52,0.00,SCT,,0.00,WeatherDisplay:10.37,2013-01-19 16:34:00,
2013-01-19 11:39:00,45.4,28.3,30.05,WSW,248,11.3,12.7,51,0.00,SCT,,0.00,WeatherDisplay:10.37,2013-01-19 16:39:00,
2013-01-19 11:44:00,45.6,27.5,30.05,SW,234,5.4,15.0,49,0.00,SCT,,0.00,WeatherDisplay:10.37,2013-01-19 16:44:00,
2013-01-19 11:49:00,45.9,28.3,30.04,SW,220,6.2,11.5,50,0.00,SCT,,0.00,WeatherDisplay:10.37,2013-01-19 16:49:00,
2013-01-19 11:54:00,46.0,28.4,30.04,SSW,209,12.1,17.3,50,0.00,SCT,,0.00,WeatherDisplay:10.37,2013-01-19 16:54:00,
2013-01-19 11:59:00,46.2,29.1,30.04,West,269,10.4,19.6,51,0.00,SCT,,0.00,WeatherDisplay:10.37,2013-01-19 16:59:00,
2013-01-19 12:04:00,46.2,28.6,30.03,SW,232,8.1,11.5,50,0.00,BKN,,0.00,WeatherDisplay:10.37,2013-01-19 17:04:00,
2013-01-19 12:09:00,46.5,28.8,30.03,South,190,8.1,18.4,50,0.00,BKN,,0.00,WeatherDisplay:10.37,2013-01-19 17:09:00,
2013-01-19 12:14:00,46.8,30.6,30.02,SW,220,7.5,10.0,53,0.00,BKN,,0.00,WeatherDisplay:10.37,2013-01-19 17:14:00,
2013-01-19 12:19:00,47.1,28.9,30.02,SW,223,13.3,17.3,49,0.00,BKN,,0.00,WeatherDisplay:10.37,2013-01-19 17:19:00,
2013-01-19 12:24:00,47.2,29.5,30.01,South,191,9.0,17.0,50,0.00,BKN,,0.00,WeatherDisplay:10.37,2013-01-19 17:24:00,
2013-01-19 12:29:00,47.2,29.0,30.01,WSW,242,8.5,12.7,49,0.00,BKN,,0.00,WeatherDisplay:10.37,2013-01-19 17:29:00,
2013-01-19 12:35:00,47.2,29.5,30.01,WSW,242,10.8,17.3,50,0.00,BKN,,0.00,WeatherDisplay:10.37,2013-01-19 17:35:00,
2013-01-19 12:40:00,47.4,29.7,30.00,SW,225,10.0,20.0,50,0.00,BKN,BKN,0.00,WeatherDisplay:10.37,2013-01-19 17:40:00,
2013-01-19 12:45:00,47.6,29.4,29.99,West,262,10.7,20.7,49,0.00,BKN,,0.00,WeatherDisplay:10.37,2013-01-19 17:45:00,
2013-01-19 12:50:00,47.6,29.9,29.99,West,263,5.1,17.0,50,0.00,BKN,,0.00,WeatherDisplay:10.37,2013-01-19 17:50:00,
2013-01-19 12:55:00,47.8,30.0,29.99,South,182,12.3,19.0,50,0.00,BKN,,0.00,WeatherDisplay:10.37,2013-01-19 17:55:00,
2013-01-19 13:00:00,48.1,29.8,29.99,SW,223,11.4,17.3,49,0.00,BKN,,0.00,WeatherDisplay:10.37,2013-01-19 18:00:00,
2013-01-19 13:06:00,48.2,30.4,29.98,WSW,241,7.8,13.8,50,0.00,SCT,,0.00,WeatherDisplay:10.37,2013-01-19 18:06:00,
2013-01-19 13:11:00,48.5,30.7,29.98,SW,233,7.2,13.8,50,0.00,SCT,,0.00,WeatherDisplay:10.37,2013-01-19 18:11:00,
2013-01-19 13:16:00,48.7,30.4,29.97,WSW,251,8.3,14.0,49,0.00,SCT,,0.00,WeatherDisplay:10.37,2013-01-19 18:16:00,
2013-01-19 13:22:00,48.8,30.5,29.97,West,261,7.2,20.7,49,0.00,SCT,,0.00,WeatherDisplay:10.37,2013-01-19 18:22:00,
2013-01-19 13:27:00,48.7,29.9,29.97,West,267,7.5,19.6,48,0.00,SCT,,0.00,WeatherDisplay:10.37,2013-01-19 18:27:00,
2013-01-19 13:32:00,48.6,29.8,29.97,SW,234,11.2,15.0,48,0.00,SCT,,0.00,WeatherDisplay:10.37,2013-01-19 18:32:00,
2013-01-19 13:37:00,48.7,30.4,29.96,WSW,240,9.9,19.6,49,0.00,SCT,,0.00,WeatherDisplay:10.37,2013-01-19 18:37:00,
2013-01-19 13:42:00,48.7,29.9,29.96,WSW,258,11.3,17.3,48,0.00,SCT,,0.00,WeatherDisplay:10.37,2013-01-19 18:42:00,
2013-01-19 13:47:00,49.0,30.7,29.96,SSE,163,9.8,11.0,49,0.00,SCT,,0.00,WeatherDisplay:10.37,2013-01-19 18:47:00,
2013-01-19 13:52:00,49.3,30.4,29.95,SW,236,8.5,13.8,48,0.00,SCT,,0.00,WeatherDisplay:10.37,2013-01-19 18:52:00,
2013-01-19 13:57:00,49.4,30.5,29.95,SW,234,8.5,12.7,48,0.00,SCT,,0.00,WeatherDisplay:10.37,2013-01-19 18:57:00,
2013-01-19 14:02:00,49.7,30.8,29.95,SW,233,9.0,16.1,48,0.00,SCT,,0.00,WeatherDisplay:10.37,2013-01-19 19:02:00,
2013-01-19 14:08:00,49.7,30.8,29.94,SSW,206,7.1,16.1,48,0.00,SCT,,0.00,WeatherDisplay:10.37,2013-01-19 19:08:00,
2013-01-19 14:14:00,49.9,30.5,29.94,SW,235,10.2,15.0,47,0.00,SCT,,0.00,WeatherDisplay:10.37,2013-01-19 19:14:00,
2013-01-19 14:19:00,49.8,30.4,29.94,WSW,258,7.8,15.0,47,0.00,SCT,,0.00,WeatherDisplay:10.37,2013-01-19 19:19:00,
2013-01-19 14:24:00,50.0,30.0,29.93,SW,229,7.5,16.1,46,0.00,SCT,,0.00,WeatherDisplay:10.37,2013-01-19 19:24:00,
2013-01-19 14:30:00,50.1,30.6,29.93,WSW,253,9.0,11.5,47,0.00,SCT,,0.00,WeatherDisplay:10.37,2013-01-19 19:30:00,
2013-01-19 14:35:00,50.2,30.2,29.93,SW,225,10.0,18.0,46,0.00,SCT,SCT,0.00,WeatherDisplay:10.37,2013-01-19 19:35:00,
2013-01-19 14:40:00,50.3,29.2,29.92,SSW,213,11.9,19.6,44,0.00,SCT,,0.00,WeatherDisplay:10.37,2013-01-19 19:40:00,
2013-01-19 14:45:00,50.5,29.9,29.92,WSW,257,12.5,19.6,45,0.00,SCT,,0.00,WeatherDisplay:10.37,2013-01-19 19:45:00,
2013-01-19 14:50:00,50.6,30.0,29.92,South,180,5.8,11.5,45,0.00,SCT,,0.00,WeatherDisplay:10.37,2013-01-19 19:50:00,
2013-01-19 14:56:00,50.7,30.1,29.91,SSW,194,9.6,19.6,45,0.00,SCT,,0.00,WeatherDisplay:10.37,2013-01-19 19:56:00,
2013-01-19 15:01:00,50.8,29.6,29.91,South,191,9.0,18.4,44,0.00,SCT,,0.00,WeatherDisplay:10.37,2013-01-19 20:01:00,
2013-01-19 15:06:00,51.0,29.3,29.92,WSW,254,13.7,26.5,43,0.00,SCT,,0.00,WeatherDisplay:10.37,2013-01-19 20:06:00,
2013-01-19 15:11:00,51.0,29.8,29.91,SSW,202,6.7,17.3,44,0.00,SCT,,0.00,WeatherDisplay:10.37,2013-01-19 20:11:00,
2013-01-19 15:16:00,51.1,28.2,29.90,SW,216,12.7,25.3,41,0.00,SCT,,0.00,WeatherDisplay:10.37,2013-01-19 20:16:00,
2013-01-19 15:22:00,51.2,28.9,29.90,SSW,207,8.3,19.6,42,0.00,SCT,,0.00,WeatherDisplay:10.37,2013-01-19 20:22:00,
2013-01-19 15:27:00,51.3,29.0,29.90,WSW,252,11.4,13.8,42,0.00,SCT,,0.00,WeatherDisplay:10.37,2013-01-19 20:27:00,
2013-01-19 15:32:00,51.3,28.4,29.90,SSE,155,11.6,12.7,41,0.00,SCT,,0.00,WeatherDisplay:10.37,2013-01-19 20:32:00,
2013-01-19 15:37:00,51.3,28.4,29.89,SW,223,8.6,11.5,41,0.00,SCT,,0.00,WeatherDisplay:10.37,2013-01-19 20:37:00,
2013-01-19 15:42:00,51.2,27.7,29.89,SSW,205,8.6,16.1,40,0.00,SCT,,0.00,WeatherDisplay:10.37,2013-01-19 20:42:00,
2013-01-19 15:47:00,51.2,28.3,29.89,SW,232,4.8,8.1,41,0.00,SCT,,0.00,WeatherDisplay:10.37,2013-01-19 20:47:00,
2013-01-19 15:52:00,51.3,27.8,29.89,SW,219,10.1,12.7,40,0.00,SCT,,0.00,WeatherDisplay:10.37,2013-01-19 20:52:00,
2013-01-19 15:58:00,51.3,28.4,29.88,SSW,207,6.4,11.5,41,0.00,SCT,,0.00,WeatherDisplay:10.37,2013-01-19 20:58:00,
2013-01-19 16:03:00,51.3,27.8,29.88,WSW,254,11.1,18.4,40,0.00,SCT,,0.00,WeatherDisplay:10.37,2013-01-19 21:03:00,
2013-01-19 16:09:00,51.2,28.3,29.88,WSW,252,6.7,13.8,41,0.00,SCT,,0.00,WeatherDisplay:10.37,2013-01-19 21:09:00,
2013-01-19 16:14:00,51.1,27.6,29.87,SSW,198,8.5,18.4,40,0.00,SCT,,0.00,WeatherDisplay:10.37,2013-01-19 21:14:00,
2013-01-19 16:19:00,51.1,27.0,29.87,SW,223,8.2,18.4,39,0.00,SCT,,0.00,WeatherDisplay:10.37,2013-01-19 21:19:00,
2013-01-19 16:24:00,51.1,26.3,29.87,WSW,242,13.2,20.0,38,0.00,SCT,,0.00,WeatherDisplay:10.37,2013-01-19 21:24:00,
2013-01-19 16:30:00,51.0,27.5,29.87,SSW,209,5.2,9.2,40,0.00,SCT,,0.00,WeatherDisplay:10.37,2013-01-19 21:30:00,
2013-01-19 16:35:00,50.8,27.3,29.86,SSW,207,7.0,16.0,40,0.00,SCT,SCT,0.00,WeatherDisplay:10.37,2013-01-19 21:35:00,
2013-01-19 16:41:00,50.7,27.2,29.86,SW,215,5.6,11.5,40,0.00,SCT,,0.00,WeatherDisplay:10.37,2013-01-19 21:41:00,
2013-01-19 16:46:00,50.5,27.0,29.86,SSW,205,7.8,11.5,40,0.00,SCT,,0.00,WeatherDisplay:10.37,2013-01-19 21:46:00,
2013-01-19 16:51:00,50.3,26.9,29.86,SW,216,7.7,11.5,40,0.00,SCT,,0.00,WeatherDisplay:10.37,2013-01-19 21:51:00,
2013-01-19 16:57:00,50.2,26.2,29.85,South,186,10.4,12.7,39,0.00,SCT,,0.00,WeatherDisplay:10.37,2013-01-19 21:57:00,
2013-01-19 17:02:00,50.0,26.0,29.85,SW,215,9.9,11.5,39,0.00,SCT,,0.00,WeatherDisplay:10.37,2013-01-19 22:02:00,
2013-01-19 17:07:00,49.9,25.9,29.84,SW,235,7.2,13.8,39,0.00,SCT,,0.00,WeatherDisplay:10.37,2013-01-19 22:07:00,
2013-01-19 17:13:00,49.6,25.0,29.84,WSW,237,9.8,11.0,38,0.00,SCT,,0.00,WeatherDisplay:10.37,2013-01-19 22:13:00,
2013-01-19 17:18:00,49.5,24.9,29.84,SSW,195,9.6,16.1,38,0.00,SCT,,0.00,WeatherDisplay:10.37,2013-01-19 22:18:00,
2013-01-19 17:23:00,49.3,25.4,29.83,SW,236,8.2,16.1,39,0.00,SCT,,0.00,WeatherDisplay:10.37,2013-01-19 22:23:00,
2013-01-19 17:28:00,49.2,25.3,29.83,South,190,7.0,10.4,39,0.00,SCT,,0.00,WeatherDisplay:10.37,2013-01-19 22:28:00,
2013-01-19 17:33:00,49.1,25.2,29.83,South,188,8.4,13.8,39,0.00,SCT,,0.00,WeatherDisplay:10.37,2013-01-19 22:33:00,
2013-01-19 17:39:00,49.0,25.1,29.82,SSW,208,9.2,13.8,39,0.00,SCT,,0.00,WeatherDisplay:10.37,2013-01-19 22:39:00,
2013-01-19 17:44:00,48.9,25.0,29.82,South,184,10.0,18.0,39,0.00,SCT,,0.00,WeatherDisplay:10.37,2013-01-19 22:44:00,
2013-01-19 17:49:00,48.9,25.0,29.82,SSW,206,7.3,12.7,39,0.00,SCT,,0.00,WeatherDisplay:10.37,2013-01-19 22:49:00,
2013-01-19 17:54:00,48.7,25.4,29.82,SW,218,5.3,11.0,40,0.00,SCT,,0.00,WeatherDisplay:10.37,2013-01-19 22:54:00,
2013-01-19 17:59:00,48.5,24.6,29.81,South,184,9.8,18.4,39,0.00,SCT,,0.00,WeatherDisplay:10.37,2013-01-19 22:59:00,
2013-01-19 18:05:00,48.4,25.2,29.81,SSW,204,8.0,18.0,40,0.00,SCT,SCT,0.00,WeatherDisplay:10.37,2013-01-19 23:05:00,
2013-01-19 18:10:00,48.3,25.1,29.81,SSW,211,6.0,11.5,40,0.00,SCT,,0.00,WeatherDisplay:10.37,2013-01-19 23:10:00,
2013-01-19 18:15:00,48.3,25.7,29.81,SSW,204,8.0,13.8,41,0.00,SCT,,0.00,WeatherDisplay:10.37,2013-01-19 23:15:00,
2013-01-19 18:20:00,48.2,25.6,29.80,SSW,209,7.0,21.0,41,0.00,SCT,SCT,0.00,WeatherDisplay:10.37,2013-01-19 23:20:00,
2013-01-19 18:25:00,48.2,25.6,29.80,SSW,207,6.9,11.5,41,0.00,SCT,,0.00,WeatherDisplay:10.37,2013-01-19 23:25:00,
2013-01-19 18:30:00,48.1,26.1,29.80,SSW,202,7.0,17.0,42,0.00,SCT,SCT,0.00,WeatherDisplay:10.37,2013-01-19 23:30:00,
2013-01-19 18:35:00,48.1,26.1,29.80,SSW,211,7.0,18.0,42,0.00,SCT,SCT,0.00,WeatherDisplay:10.37,2013-01-19 23:35:00,
2013-01-19 18:40:00,48.0,26.5,29.80,SSW,211,8.7,11.5,43,0.00,SCT,,0.00,WeatherDisplay:10.37,2013-01-19 23:40:00,
2013-01-19 18:45:00,48.0,26.6,29.80,SW,217,7.0,18.0,43,0.00,SCT,SCT,0.00,WeatherDisplay:10.37,2013-01-19 23:45:00,
2013-01-19 18:50:00,48.1,26.6,29.80,WNW,294,11.2,17.3,43,0.00,SCT,,0.00,WeatherDisplay:10.37,2013-01-19 23:50:00,
2013-01-19 18:56:00,48.1,27.2,29.80,SW,218,6.3,10.4,44,0.00,SCT,,0.00,WeatherDisplay:10.37,2013-01-19 23:56:00,
2013-01-19 19:02:00,48.1,27.2,29.81,SW,235,8.1,13.8,44,0.00,BKN,,0.00,WeatherDisplay:10.37,2013-01-20 00:02:00,
2013-01-19 19:07:00,48.2,27.3,29.81,SW,224,5.0,11.5,44,0.00,BKN,,0.00,WeatherDisplay:10.37,2013-01-20 00:07:00,
2013-01-19 19:12:00,48.2,27.3,29.82,SSW,194,4.0,5.8,44,0.00,BKN,,0.00,WeatherDisplay:10.37,2013-01-20 00:12:00,
2013-01-19 19:18:00,48.1,27.2,29.81,SW,217,5.9,12.7,44,0.00,BKN,,0.00,WeatherDisplay:10.37,2013-01-20 00:18:00,
2013-01-19 19:23:00,48.0,27.1,29.81,SW,236,8.1,13.0,44,0.00,BKN,,0.00,WeatherDisplay:10.37,2013-01-20 00:23:00,
2013-01-19 19:28:00,48.0,27.6,29.81,SSW,212,8.4,10.4,45,0.00,BKN,,0.00,WeatherDisplay:10.37,2013-01-20 00:28:00,
2013-01-19 19:33:00,47.9,27.6,29.82,SSW,193,5.2,11.5,45,0.00,BKN,,0.00,WeatherDisplay:10.37,2013-01-20 00:33:00,
2013-01-19 19:38:00,47.9,28.1,29.82,WSW,238,3.4,6.9,46,0.00,BKN,,0.00,WeatherDisplay:10.37,2013-01-20 00:38:00,
2013-01-19 19:44:00,47.8,28.0,29.82,SSW,213,3.3,5.0,46,0.00,BKN,,0.00,WeatherDisplay:10.37,2013-01-20 00:44:00,
2013-01-19 19:49:00,47.8,28.0,29.82,SW,227,4.9,8.1,46,0.00,BKN,,0.00,WeatherDisplay:10.37,2013-01-20 00:49:00,
2013-01-19 19:54:00,47.8,27.5,29.82,SSW,201,6.9,10.4,45,0.00,BKN,,0.00,WeatherDisplay:10.37,2013-01-20 00:54:00,
2013-01-19 19:59:00,47.8,27.5,29.82,West,270,7.0,11.5,45,0.00,BKN,,0.00,WeatherDisplay:10.37,2013-01-20 00:59:00,
2013-01-19 20:04:00,47.8,27.5,29.82,SW,220,5.3,9.2,45,0.00,OVC,,0.00,WeatherDisplay:10.37,2013-01-20 01:04:00,
2013-01-19 20:09:00,47.8,27.5,29.81,WSW,248,7.9,11.5,45,0.00,OVC,,0.00,WeatherDisplay:10.37,2013-01-20 01:09:00,
2013-01-19 20:15:00,47.8,28.0,29.81,SW,236,7.7,12.7,46,0.00,OVC,,0.00,WeatherDisplay:10.37,2013-01-20 01:15:00,
2013-01-19 20:20:00,47.8,28.0,29.81,SW,217,6.7,10.4,46,0.00,OVC,,0.00,WeatherDisplay:10.37,2013-01-20 01:20:00,
2013-01-19 20:25:00,47.7,27.9,29.81,SW,230,9.8,12.7,46,0.00,OVC,,0.00,WeatherDisplay:10.37,2013-01-20 01:25:00,
2013-01-19 20:30:00,47.8,28.0,29.80,SW,234,8.0,16.0,46,0.00,OVC,OVC,0.00,WeatherDisplay:10.37,2013-01-20 01:30:00,
2013-01-19 20:35:00,47.9,28.1,29.80,SW,221,6.0,13.0,46,0.00,OVC,OVC,0.00,WeatherDisplay:10.37,2013-01-20 01:35:00,
2013-01-19 20:40:00,47.9,28.1,29.80,SW,221,5.6,9.2,46,0.00,OVC,,0.00,WeatherDisplay:10.37,2013-01-20 01:40:00,
2013-01-19 20:45:00,48.0,28.2,29.80,SW,231,5.0,16.0,46,0.00,OVC,OVC,0.00,WeatherDisplay:10.37,2013-01-20 01:45:00,
2013-01-19 20:50:00,48.0,28.2,29.80,SW,221,8.0,14.0,46,0.00,OVC,OVC,0.00,WeatherDisplay:10.37,2013-01-20 01:50:00,
2013-01-19 20:55:00,47.9,28.1,29.79,WSW,250,5.9,11.5,46,0.00,OVC,,0.00,WeatherDisplay:10.37,2013-01-20 01:55:00,
2013-01-19 21:00:00,47.8,28.0,29.79,SW,226,8.2,17.3,46,0.00,OVC,,0.00,WeatherDisplay:10.37,2013-01-20 02:00:00,
2013-01-19 21:05:00,47.8,28.0,29.78,SW,229,8.1,11.5,46,0.00,OVC,,0.00,WeatherDisplay:10.37,2013-01-20 02:05:00,
2013-01-19 21:10:00,47.8,28.0,29.78,SW,227,9.8,12.7,46,0.00,OVC,,0.00,WeatherDisplay:10.37,2013-01-20 02:10:00,
2013-01-19 21:15:00,47.7,28.4,29.78,SSW,194,8.9,11.5,47,0.00,OVC,,0.00,WeatherDisplay:10.37,2013-01-20 02:15:00,
2013-01-19 21:20:00,47.6,28.3,29.78,SSW,211,6.9,12.7,47,0.00,OVC,,0.00,WeatherDisplay:10.37,2013-01-20 02:20:00,
2013-01-19 21:25:00,47.4,28.2,29.78,WNW,294,10.1,18.4,47,0.00,OVC,,0.00,WeatherDisplay:10.37,2013-01-20 02:25:00,
2013-01-19 21:30:00,47.3,28.1,29.77,WSW,247,5.1,8.1,47,0.00,OVC,,0.00,WeatherDisplay:10.37,2013-01-20 02:30:00,
2013-01-19 21:35:00,47.3,28.1,29.77,SW,217,8.9,11.5,47,0.00,OVC,,0.00,WeatherDisplay:10.37,2013-01-20 02:35:00,
2013-01-19 21:40:00,47.3,28.1,29.78,SW,221,10.5,19.6,47,0.00,OVC,,0.00,WeatherDisplay:10.37,2013-01-20 02:40:00,
2013-01-19 21:46:00,47.4,28.2,29.77,SW,236,9.4,18.0,47,0.00,OVC,,0.00,WeatherDisplay:10.37,2013-01-20 02:46:00,
2013-01-19 21:51:00,47.2,28.0,29.77,SW,235,7.4,17.3,47,0.00,OVC,,0.00,WeatherDisplay:10.37,2013-01-20 02:51:00,
2013-01-19 21:56:00,47.0,28.3,29.77,SW,214,7.2,13.8,48,0.00,OVC,,0.00,WeatherDisplay:10.37,2013-01-20 02:56:00,
2013-01-19 22:02:00,47.1,27.9,29.77,West,261,11.6,20.0,47,0.00,BKN,,0.00,WeatherDisplay:10.37,2013-01-20 03:02:00,
2013-01-19 22:07:00,46.9,28.2,29.76,SW,219,4.6,6.9,48,0.00,BKN,,0.00,WeatherDisplay:10.37,2013-01-20 03:07:00,
2013-01-19 22:12:00,46.7,28.5,29.76,SW,219,11.2,18.4,49,0.00,BKN,,0.00,WeatherDisplay:10.37,2013-01-20 03:12:00,
2013-01-19 22:18:00,46.7,28.5,29.76,SSW,211,11.5,18.4,49,0.00,BKN,,0.00,WeatherDisplay:10.37,2013-01-20 03:18:00,
2013-01-19 22:23:00,46.7,28.0,29.75,West,268,12.4,20.7,48,0.00,BKN,,0.00,WeatherDisplay:10.37,2013-01-20 03:23:00,
2013-01-19 22:29:00,46.8,29.6,29.75,SW,229,10.4,12.7,51,0.00,BKN,,0.00,WeatherDisplay:10.37,2013-01-20 03:29:00,
2013-01-19 22:35:00,46.7,28.5,29.75,SSW,213,7.9,12.7,49,0.00,BKN,,0.00,WeatherDisplay:10.37,2013-01-20 03:35:00,
2013-01-19 22:40:00,46.6,28.4,29.75,WSW,244,7.6,8.1,49,0.00,BKN,,0.00,WeatherDisplay:10.37,2013-01-20 03:40:00,
2013-01-19 22:45:00,46.5,28.8,29.75,West,265,8.8,11.5,50,0.00,BKN,,0.00,WeatherDisplay:10.37,2013-01-20 03:45:00,
2013-01-19 22:50:00,46.5,28.8,29.74,WSW,238,7.0,20.0,50,0.00,BKN,BKN,0.00,WeatherDisplay:10.37,2013-01-20 03:50:00,
2013-01-19 22:55:00,46.5,28.9,29.74,SW,234,9.0,23.0,50,0.00,BKN,BKN,0.00,WeatherDisplay:10.37,2013-01-20 03:55:00,
2013-01-19 23:00:00,46.6,28.4,29.74,SW,228,8.7,21.9,49,0.00,BKN,,0.00,WeatherDisplay:10.37,2013-01-20 04:00:00,
2013-01-19 23:05:00,46.5,28.8,29.74,SW,230,10.0,20.0,50,0.00,SCT,SCT,0.00,WeatherDisplay:10.37,2013-01-20 04:05:00,
2013-01-19 23:10:00,46.4,28.8,29.74,WSW,239,12.0,20.0,50,0.00,SCT,SCT,0.00,WeatherDisplay:10.37,2013-01-20 04:10:00,
2013-01-19 23:15:00,46.3,28.7,29.74,SW,227,8.0,17.0,50,0.00,SCT,SCT,0.00,WeatherDisplay:10.37,2013-01-20 04:15:00,
2013-01-19 23:20:00,46.2,29.1,29.73,WSW,250,7.0,11.5,51,0.00,SCT,,0.00,WeatherDisplay:10.37,2013-01-20 04:20:00,
2013-01-19 23:25:00,46.3,29.1,29.73,SW,231,7.0,21.0,51,0.00,SCT,SCT,0.00,WeatherDisplay:10.37,2013-01-20 04:25:00,
2013-01-19 23:30:00,46.2,29.1,29.73,SW,231,5.0,17.0,51,0.00,SCT,SCT,0.00,WeatherDisplay:10.37,2013-01-20 04:30:00,
2013-01-19 23:35:00,46.1,28.9,29.73,WSW,239,8.0,15.0,51,0.00,SCT,SCT,0.00,WeatherDisplay:10.37,2013-01-20 04:35:00,
2013-01-19 23:40:00,46.0,29.4,29.72,WSW,243,6.0,12.0,52,0.00,SCT,SCT,0.00,WeatherDisplay:10.37,2013-01-20 04:40:00,
2013-01-19 23:45:00,46.1,29.4,29.72,WSW,244,9.0,27.0,52,0.00,SCT,SCT,0.00,WeatherDisplay:10.37,2013-01-20 04:45:00,
2013-01-19 23:50:00,46.2,29.5,29.72,WSW,245,10.0,17.0,52,0.00,SCT,SCT,0.00,WeatherDisplay:10.37,2013-01-20 04:50:00,
2013-01-19 23:55:00,46.3,29.6,29.72,SW,232,8.0,16.0,52,0.00,SCT,SCT,0.00,WeatherDisplay:10.37,2013-01-20 04:55:00,